If you wish to contribute or participate in the discussions about articles you are invited to join SKYbrary as a registered user

 Actions

Marseille/Provence

From SKYbrary Wiki

LFML /
Airport
ICAO: LFML
Summary
Name Marseille/Provence
Region Europe
Territory France FR.gif
Location Marseille, France
Serving
Coordinates 43° 26' 12.00" N, 5° 12' 54.00" E
Runways
Designator Length Width Surface ROPS
13L/31R 3500 m11,482.94 ft
45 m147.638 ft
ASP yes/yes
13R/31L 2370 m7,775.591 ft
45 m147.638 ft
ASP yes/yes
14L/32R 3500 m11,482.94 ft
45 m147.638 ft
ASP no/no
14R/32L 2370 m7,775.591 ft
45 m147.638 ft
ASP no/no


METAR
Observation LFML 150300Z AUTO 34008KT CAVOK 18/12 Q1013 NOSIG
Station Marseille / Marignane
Date/Time 15 July 2020 03:00:00
Wind direction 340°
Wind speed 08 kts
Lowest cloud amount clouds and visibility OK
Temperature 18°C
Dew point 12°C
Humidity 67%
QNH 1013 hPa
Weather condition n/a


Marseille Airport

ICAO: LFML IATA: MRS

Description

International airport serving...

Climatology

Maps

Terrain

Loading map...

Airport Layout

Loading map...

Accidents & Serious Incidents at or in vicinity of LFML